createdAt,value
2019-02-07T00:02:25.817Z,20.20
2019-02-07T00:04:56.433Z,20.52
2019-02-07T00:07:26.757Z,17.77
2019-02-07T00:09:57.111Z,19.80
2019-02-07T00:12:27.483Z,19.55
2019-02-07T00:14:58.031Z,21.68
2019-02-07T00:17:28.489Z,20.17
2019-02-07T00:19:59.155Z,17.35
2019-02-07T00:22:29.822Z,23.15
2019-02-07T00:25:00.396Z,18.95
2019-02-07T00:27:31.006Z,16.23
2019-02-07T00:30:01.996Z,17.87
2019-02-07T00:32:33.062Z,21.35
2019-02-07T00:35:03.878Z,20.65
2019-02-07T00:37:34.582Z,22.50
2019-02-07T00:40:12.888Z,20.55
2019-02-07T00:42:43.596Z,19.07
2019-02-07T00:45:17.376Z,19.50
2019-02-07T00:47:47.795Z,18.98
2019-02-07T00:50:19.071Z,17.55
2019-02-07T00:52:49.699Z,19.62
2019-02-07T00:55:21.473Z,30.57
2019-02-07T00:57:51.800Z,16.52
2019-02-07T01:00:27.229Z,18.48
2019-02-07T01:02:57.627Z,18.35
2019-02-07T01:05:28.278Z,21.42
2019-02-07T01:07:59.256Z,16.82
2019-02-07T01:10:30.742Z,17.40
2019-02-07T01:13:01.360Z,19.25
2019-02-07T01:15:31.955Z,17.67
2019-02-07T01:18:02.611Z,17.90
2019-02-07T01:20:32.989Z,15.40
2019-02-07T01:23:03.580Z,21.02
2019-02-07T01:25:34.436Z,17.77
2019-02-07T01:28:05.054Z,21.15
2019-02-07T01:30:35.377Z,17.52
2019-02-07T01:33:05.773Z,12.58
2019-02-07T01:35:36.881Z,15.60
2019-02-07T01:38:07.216Z,21.37
2019-02-07T01:40:37.860Z,16.62
2019-02-07T01:43:08.519Z,17.82
2019-02-07T01:45:38.846Z,17.57
2019-02-07T01:48:09.457Z,17.10
2019-02-07T01:50:39.852Z,17.37
2019-02-07T01:53:10.497Z,16.60
2019-02-07T01:55:40.815Z,16.62
2019-02-07T01:58:11.502Z,14.98
2019-02-07T02:00:42.143Z,16.80
2019-02-07T02:03:12.775Z,12.23
2019-02-07T02:05:43.623Z,27.10
2019-02-07T02:08:14.577Z,19.40
2019-02-07T02:10:45.233Z,18.82
2019-02-07T02:13:15.882Z,15.85
2019-02-07T02:15:46.585Z,16.73
2019-02-07T02:18:17.228Z,16.57
2019-02-07T02:20:47.853Z,19.92
2019-02-07T02:23:18.257Z,16.62
2019-02-07T02:25:48.915Z,17.90
2019-02-07T02:28:19.511Z,13.93
2019-02-07T02:30:49.890Z,16.90
2019-02-07T02:33:20.226Z,18.35
2019-02-07T02:35:50.852Z,18.05
2019-02-07T02:38:21.470Z,18.42
2019-02-07T02:40:51.878Z,16.50
2019-02-07T02:43:22.234Z,19.52
2019-02-07T02:45:52.882Z,19.42
2019-02-07T02:48:23.200Z,12.10
2019-02-07T02:50:53.589Z,17.37
2019-02-07T02:53:23.979Z,20.25
2019-02-07T02:55:54.411Z,17.92
2019-02-07T02:58:25.186Z,20.37
2019-02-07T03:00:57.681Z,18.15
2019-02-07T03:03:35.383Z,18.70
2019-02-07T03:06:10.081Z,16.27
2019-02-07T03:08:49.097Z,19.05
2019-02-07T03:11:33.165Z,20.70
2019-02-07T03:14:14.413Z,18.90
2019-02-07T03:16:50.178Z,15.38
2019-02-07T03:19:38.356Z,18.25
2019-02-07T03:22:22.214Z,15.08
2019-02-07T03:25:00.280Z,16.40
2019-02-07T03:27:41.443Z,19.52
2019-02-07T03:30:23.266Z,14.53
2019-02-07T03:32:57.864Z,13.68
2019-02-07T03:35:32.394Z,18.27
2019-02-07T03:38:10.225Z,16.23
2019-02-07T03:40:45.106Z,14.38
2019-02-07T03:43:33.685Z,12.68
2019-02-07T03:46:22.058Z,13.32
2019-02-07T03:48:54.539Z,17.85
2019-02-07T03:51:26.546Z,14.93
2019-02-07T03:54:07.146Z,15.78
2019-02-07T03:56:42.057Z,18.25
2019-02-07T03:59:14.734Z,16.05
2019-02-07T04:01:47.473Z,16.25
2019-02-07T04:04:19.734Z,17.55
2019-02-07T04:06:51.775Z,16.85
2019-02-07T04:09:27.025Z,14.18
2019-02-07T04:12:04.784Z,17.73
2019-02-07T04:14:53.476Z,17.05
2019-02-07T04:17:41.683Z,16.82
2019-02-07T04:20:31.597Z,17.45
2019-02-07T04:23:06.453Z,13.98
2019-02-07T04:25:50.568Z,17.15
2019-02-07T04:28:25.620Z,16.60
2019-02-07T04:31:06.284Z,15.55
2019-02-07T04:33:44.371Z,13.10
2019-02-07T04:36:33.296Z,20.35
2019-02-07T04:39:07.229Z,14.23
2019-02-07T04:41:45.292Z,12.33
2019-02-07T04:44:29.359Z,16.37
2019-02-07T04:47:01.418Z,17.12
2019-02-07T04:49:49.640Z,17.40
2019-02-07T04:52:21.614Z,18.62
2019-02-07T04:55:02.128Z,15.90
2019-02-07T04:57:50.374Z,14.85
2019-02-07T05:00:25.210Z,14.78
2019-02-07T05:03:03.340Z,16.02
2019-02-07T05:05:38.745Z,16.32
2019-02-07T05:08:11.023Z,13.50
2019-02-07T05:10:59.630Z,17.02
2019-02-07T05:13:31.895Z,16.05
2019-02-07T05:16:09.864Z,15.90
2019-02-07T05:19:00.116Z,22.52
2019-02-07T05:21:43.891Z,18.12
2019-02-07T05:24:16.139Z,17.10
2019-02-07T05:26:57.451Z,18.25
2019-02-07T05:29:44.503Z,16.20
2019-02-07T05:32:32.526Z,14.63
2019-02-07T05:35:20.633Z,22.75
2019-02-07T05:38:07.454Z,17.80
2019-02-07T05:40:56.073Z,17.10
2019-02-07T05:43:30.948Z,21.15
2019-02-07T05:46:03.389Z,19.00
2019-02-07T05:48:43.914Z,21.57
2019-02-07T05:51:15.896Z,19.85
2019-02-07T05:53:51.021Z,18.90
2019-02-07T05:56:23.494Z,14.90
2019-02-07T05:59:11.431Z,20.80
2019-02-07T06:01:46.189Z,19.95
2019-02-07T06:04:34.668Z,13.53
2019-02-07T06:07:18.554Z,17.65
2019-02-07T06:10:08.876Z,22.40
2019-02-07T06:12:43.684Z,19.95
2019-02-07T06:15:15.694Z,21.40
2019-02-07T06:17:50.593Z,20.17
2019-02-07T06:20:38.051Z,19.80
2019-02-07T06:23:16.440Z,21.15
2019-02-07T06:26:04.587Z,20.60
2019-02-07T06:28:37.079Z,24.30
2019-02-07T06:31:25.703Z,22.60
2019-02-07T06:34:15.822Z,21.65
2019-02-07T06:36:47.825Z,22.07
2019-02-07T06:39:22.528Z,19.87
2019-02-07T06:42:03.726Z,23.45
2019-02-07T06:44:44.835Z,24.52
2019-02-07T06:47:33.567Z,22.48
2019-02-07T06:50:12.958Z,24.20
2019-02-07T06:53:01.471Z,23.40
2019-02-07T06:55:33.794Z,26.17
2019-02-07T06:58:06.066Z,24.12
2019-02-07T07:00:44.284Z,22.80
2019-02-07T07:03:19.256Z,23.07
2019-02-07T07:05:51.479Z,21.87
2019-02-07T07:08:29.621Z,21.30
2019-02-07T07:11:07.049Z,18.32
2019-02-07T07:13:50.806Z,25.48
2019-02-07T07:16:29.025Z,27.85
2019-02-07T07:19:01.082Z,28.05
2019-02-07T07:21:39.392Z,26.55
2019-02-07T07:24:23.210Z,21.37
2019-02-07T07:26:55.929Z,24.45
2019-02-07T07:29:27.915Z,26.00
2019-02-07T07:32:16.408Z,30.10
2019-02-07T07:34:48.596Z,37.58
2019-02-07T07:37:26.616Z,24.65
2019-02-07T07:40:04.539Z,27.62
2019-02-07T07:42:53.258Z,27.15
2019-02-07T07:45:41.740Z,22.27
2019-02-07T07:48:20.142Z,20.62
2019-02-07T07:50:52.403Z,25.80
2019-02-07T07:53:40.769Z,26.30
2019-02-07T07:56:12.766Z,21.07
2019-02-07T07:58:56.875Z,25.75
2019-02-07T08:01:38.212Z,22.75
2019-02-07T08:04:13.460Z,21.57
2019-02-07T08:07:01.768Z,23.15
2019-02-07T08:09:37.133Z,18.82
2019-02-07T08:12:24.332Z,19.92
2019-02-07T08:15:02.162Z,24.98
2019-02-07T08:17:46.826Z,23.65
2019-02-07T08:20:15.600Z,25.80
2019-02-07T08:22:48.129Z,22.00
2019-02-07T08:25:25.721Z,22.70
2019-02-07T08:28:00.586Z,21.50
2019-02-07T08:30:38.443Z,33.20
2019-02-07T08:33:26.295Z,23.90
2019-02-07T08:35:58.610Z,24.20
2019-02-07T08:38:33.496Z,27.62
2019-02-07T08:41:14.812Z,27.37
2019-02-07T08:43:52.681Z,20.55
2019-02-07T08:46:40.477Z,26.20
2019-02-07T08:49:12.778Z,25.43
2019-02-07T08:52:00.974Z,26.55
2019-02-07T08:54:38.870Z,20.57
2019-02-07T08:57:22.559Z,27.13
2019-02-07T08:59:54.689Z,23.73
2019-02-07T09:02:29.542Z,23.50
2019-02-07T09:05:07.604Z,27.22
2019-02-07T09:07:45.274Z,19.37
2019-02-07T09:10:35.065Z,27.25
2019-02-07T09:13:07.123Z,22.82
2019-02-07T09:15:41.926Z,23.25
2019-02-07T09:18:20.240Z,19.80
2019-02-07T09:21:01.067Z,20.57
2019-02-07T09:23:51.253Z,23.35
2019-02-07T09:26:35.022Z,20.85
2019-02-07T09:29:23.239Z,21.05
2019-02-07T09:32:11.351Z,27.95
2019-02-07T09:34:43.713Z,21.35
2019-02-07T09:37:18.865Z,27.85
2019-02-07T09:39:53.488Z,17.87
2019-02-07T09:42:31.589Z,23.25
2019-02-07T09:45:15.151Z,24.52
2019-02-07T09:47:59.178Z,20.00
2019-02-07T09:50:46.174Z,26.10
2019-02-07T09:53:24.096Z,21.17
2019-02-07T09:56:00.131Z,19.12
2019-02-07T09:58:48.285Z,18.77
2019-02-07T10:01:26.738Z,18.20
2019-02-07T10:04:04.562Z,18.75
2019-02-07T10:06:51.288Z,18.65
2019-02-07T10:09:38.415Z,15.78
2019-02-07T10:12:19.651Z,19.98
2019-02-07T10:15:04.162Z,19.50
2019-02-07T10:17:48.069Z,22.13
2019-02-07T10:20:37.437Z,24.47
2019-02-07T10:23:12.450Z,16.17
2019-02-07T10:25:51.422Z,15.50
2019-02-07T10:28:23.785Z,19.73
2019-02-07T10:31:07.653Z,21.70
2019-02-07T10:33:39.868Z,23.45
2019-02-07T10:36:21.089Z,18.65
2019-02-07T10:38:56.120Z,19.37
2019-02-07T10:41:39.542Z,20.00
2019-02-07T10:44:14.110Z,18.80
2019-02-07T10:46:46.173Z,15.58
2019-02-07T10:49:21.350Z,18.32
2019-02-07T10:52:08.117Z,20.20
2019-02-07T10:54:52.770Z,21.25
2019-02-07T10:57:37.327Z,16.60
2019-02-07T11:00:34.466Z,19.73
2019-02-07T11:03:09.295Z,15.85
2019-02-07T11:05:54.597Z,18.45
2019-02-07T11:08:29.365Z,22.07
2019-02-07T11:11:16.383Z,17.95
2019-02-07T11:13:54.255Z,16.93
2019-02-07T11:16:41.707Z,18.57
2019-02-07T11:19:21.514Z,16.10
2019-02-07T11:21:58.648Z,18.48
2019-02-07T11:24:46.909Z,18.12
2019-02-07T11:27:27.411Z,18.98
2019-02-07T11:29:59.448Z,16.40
2019-02-07T11:32:43.643Z,14.70
2019-02-07T11:35:24.716Z,17.32
2019-02-07T11:37:59.324Z,16.90
2019-02-07T11:40:41.350Z,17.82
2019-02-07T11:43:19.331Z,17.73
2019-02-07T11:45:51.632Z,15.43
2019-02-07T11:48:41.639Z,15.70
2019-02-07T11:51:22.414Z,22.40
2019-02-07T11:54:03.269Z,16.57
2019-02-07T11:56:41.345Z,20.00
2019-02-07T11:59:25.443Z,20.08
2019-02-07T12:02:09.089Z,23.07
2019-02-07T12:04:48.606Z,25.02
2019-02-07T12:07:36.854Z,16.82
2019-02-07T12:10:29.286Z,16.20
2019-02-07T12:13:04.261Z,16.85
2019-02-07T12:15:36.484Z,12.68
2019-02-07T12:18:20.276Z,17.50
2019-02-07T12:21:04.176Z,14.70
2019-02-07T12:23:52.681Z,18.42
2019-02-07T12:26:27.709Z,16.20
2019-02-07T12:29:02.529Z,18.92
2019-02-07T12:31:34.510Z,19.05
2019-02-07T12:34:09.425Z,19.07
2019-02-07T12:36:41.918Z,17.07
2019-02-07T12:39:19.827Z,18.20
2019-02-07T12:41:51.888Z,17.70
2019-02-07T12:44:27.459Z,17.98
2019-02-07T12:47:00.133Z,16.97
2019-02-07T12:49:35.108Z,18.10
2019-02-07T12:52:10.381Z,15.10
2019-02-07T12:54:54.463Z,14.60
2019-02-07T12:57:41.656Z,19.17
2019-02-07T13:00:35.830Z,19.17
2019-02-07T13:03:07.943Z,18.77
2019-02-07T13:05:40.149Z,23.05
2019-02-07T13:08:21.156Z,18.37
2019-02-07T13:10:59.017Z,22.13
2019-02-07T13:13:33.949Z,16.65
2019-02-07T13:16:17.839Z,18.40
2019-02-07T13:19:04.362Z,17.60
2019-02-07T13:21:42.130Z,17.42
2019-02-07T13:24:14.390Z,17.95
2019-02-07T13:27:02.817Z,18.62
2019-02-07T13:29:37.735Z,20.62
2019-02-07T13:32:27.681Z,23.83
2019-02-07T13:35:08.728Z,17.67
2019-02-07T13:37:55.862Z,19.70
2019-02-07T13:40:44.026Z,19.17
2019-02-07T13:43:19.220Z,18.35
2019-02-07T13:46:00.220Z,16.67
2019-02-07T13:48:48.076Z,15.35
2019-02-07T13:51:22.728Z,17.73
2019-02-07T13:54:03.124Z,19.23
2019-02-07T13:56:35.304Z,22.70
2019-02-07T13:59:10.033Z,17.70
2019-02-07T14:01:58.851Z,19.50
2019-02-07T14:04:31.086Z,16.77
2019-02-07T14:07:03.691Z,16.60
2019-02-07T14:09:50.746Z,15.00
2019-02-07T14:12:39.220Z,13.43
2019-02-07T14:15:12.998Z,16.77
2019-02-07T14:17:47.644Z,13.18
2019-02-07T14:20:28.745Z,12.93
2019-02-07T14:23:10.003Z,11.65
2019-02-07T14:25:57.053Z,12.25
2019-02-07T14:28:29.013Z,11.25
2019-02-07T14:31:00.995Z,15.10
2019-02-07T14:33:35.932Z,11.22
2019-02-07T14:36:07.917Z,12.82
2019-02-07T14:38:42.857Z,12.05
2019-02-07T14:41:32.633Z,15.30
2019-02-07T14:44:07.980Z,17.27
2019-02-07T14:46:50.462Z,15.63
2019-02-07T14:49:20.794Z,13.72
2019-02-07T14:51:51.143Z,14.45
2019-02-07T14:54:23.417Z,13.65
2019-02-07T14:56:54.064Z,11.78
2019-02-07T14:59:24.374Z,12.45
2019-02-07T15:01:54.720Z,14.33
2019-02-07T15:04:25.074Z,13.95
2019-02-07T15:06:55.694Z,14.75
2019-02-07T15:09:26.042Z,13.68
2019-02-07T15:11:56.723Z,10.88
2019-02-07T15:14:27.065Z,15.35
2019-02-07T15:16:57.438Z,15.48
2019-02-07T15:19:27.800Z,15.80
2019-02-07T15:21:58.767Z,11.70
2019-02-07T15:24:29.373Z,13.00
2019-02-07T15:26:59.767Z,11.55
2019-02-07T15:29:30.391Z,16.60
2019-02-07T15:32:01.004Z,14.13
2019-02-07T15:34:31.665Z,23.35
2019-02-07T15:37:02.260Z,14.95
2019-02-07T15:39:32.877Z,14.10
2019-02-07T15:42:03.374Z,14.07
2019-02-07T15:44:33.721Z,12.65
2019-02-07T15:47:04.478Z,12.70
2019-02-07T15:49:34.944Z,23.57
2019-02-07T15:52:05.565Z,12.45
2019-02-07T15:54:36.584Z,16.90
2019-02-07T15:57:07.308Z,17.62
2019-02-07T15:59:39.215Z,11.30
2019-02-07T16:02:11.453Z,14.40
2019-02-07T16:04:41.823Z,14.28
2019-02-07T16:07:12.170Z,17.92
2019-02-07T16:09:42.772Z,19.62
2019-02-07T16:12:13.176Z,16.85
2019-02-07T16:14:43.807Z,17.10
2019-02-07T16:17:14.157Z,18.62
2019-02-07T16:19:44.819Z,12.82
2019-02-07T16:22:15.452Z,15.23
2019-02-07T16:24:46.131Z,14.90
2019-02-07T16:27:16.521Z,13.25
2019-02-07T16:29:47.112Z,15.55
2019-02-07T16:32:17.428Z,17.52
2019-02-07T16:34:47.767Z,14.63
2019-02-07T16:37:18.431Z,15.88
2019-02-07T16:39:48.756Z,18.10
2019-02-07T16:42:19.757Z,15.83
2019-02-07T16:44:50.132Z,17.73
2019-02-07T16:47:20.441Z,22.65
2019-02-07T16:49:50.794Z,17.37
2019-02-07T16:52:21.455Z,17.62
2019-02-07T16:54:51.803Z,17.17
2019-02-07T16:57:22.512Z,22.20
2019-02-07T16:59:53.122Z,22.48
2019-02-07T17:02:23.561Z,15.23
2019-02-07T17:04:53.983Z,17.35
2019-02-07T17:07:24.602Z,15.38
2019-02-07T17:09:55.467Z,21.33
2019-02-07T17:12:25.830Z,18.82
2019-02-07T17:14:56.435Z,15.38
2019-02-07T17:17:27.038Z,19.12
2019-02-07T17:19:57.701Z,24.63
2019-02-07T17:22:28.123Z,25.25
2019-02-07T17:24:58.509Z,22.60
2019-02-07T17:27:29.191Z,21.65
2019-02-07T17:29:59.546Z,20.15
2019-02-07T17:32:30.473Z,19.10
2019-02-07T17:35:00.831Z,20.05
2019-02-07T17:37:31.905Z,18.98
2019-02-07T17:40:02.795Z,18.15
2019-02-07T17:42:33.674Z,20.62
2019-02-07T17:45:05.465Z,16.27
2019-02-07T17:47:35.825Z,18.85
2019-02-07T17:50:11.183Z,29.18
2019-02-07T17:52:41.534Z,26.70
2019-02-07T17:55:16.172Z,26.20
2019-02-07T17:57:46.944Z,24.10
2019-02-07T18:00:23.208Z,21.05
2019-02-07T18:02:53.970Z,19.48
2019-02-07T18:05:24.313Z,28.12
2019-02-07T18:07:55.011Z,20.37
2019-02-07T18:10:25.381Z,23.50
2019-02-07T18:12:55.961Z,24.82
2019-02-07T18:15:26.953Z,20.30
2019-02-07T18:17:57.321Z,24.18
2019-02-07T18:20:27.912Z,19.55
2019-02-07T18:22:58.630Z,23.20
2019-02-07T18:25:28.990Z,22.20
2019-02-07T18:27:59.629Z,22.67
2019-02-07T18:30:30.264Z,25.23
2019-02-07T18:33:00.981Z,33.28
2019-02-07T18:35:31.581Z,20.75
2019-02-07T18:38:01.935Z,28.67
2019-02-07T18:40:33.197Z,21.17
2019-02-07T18:43:04.231Z,28.05
2019-02-07T18:45:34.816Z,21.33
2019-02-07T18:48:05.448Z,24.00
2019-02-07T18:50:37.974Z,23.73
2019-02-07T18:53:08.330Z,24.15
2019-02-07T18:55:38.700Z,30.75
2019-02-07T18:58:09.426Z,25.50
2019-02-07T19:00:39.758Z,28.35
2019-02-07T19:03:10.116Z,33.45
2019-02-07T19:05:41.179Z,27.20
2019-02-07T19:08:12.103Z,25.97
2019-02-07T19:10:42.760Z,25.37
2019-02-07T19:13:13.674Z,27.37
2019-02-07T19:15:54.676Z,32.42
2019-02-07T19:18:25.053Z,30.75
2019-02-07T19:20:55.641Z,22.70
2019-02-07T19:23:26.188Z,26.15
2019-02-07T19:25:56.508Z,32.30
2019-02-07T19:28:27.420Z,23.47
2019-02-07T19:30:57.948Z,29.75
2019-02-07T19:33:28.831Z,27.73
2019-02-07T19:35:59.177Z,28.00
2019-02-07T19:38:32.768Z,31.80
2019-02-07T19:41:02.166Z,34.15
2019-02-07T19:43:32.760Z,31.48
2019-02-07T19:46:03.648Z,31.77
2019-02-07T19:48:33.988Z,31.17
2019-02-07T19:51:04.590Z,28.30
2019-02-07T19:53:34.987Z,31.42
2019-02-07T19:56:05.407Z,24.37
2019-02-07T19:58:36.016Z,49.60
2019-02-07T20:01:06.696Z,38.63
2019-02-07T20:03:37.075Z,36.73
2019-02-07T20:06:07.415Z,30.40
2019-02-07T20:08:38.292Z,33.25
2019-02-07T20:11:08.647Z,29.05
2019-02-07T20:13:38.998Z,29.80
2019-02-07T20:16:09.648Z,32.45
2019-02-07T20:18:40.557Z,37.03
2019-02-07T20:21:11.343Z,31.93
2019-02-07T20:23:42.023Z,28.42
2019-02-07T20:26:12.363Z,31.35
2019-02-07T20:28:42.954Z,31.93
2019-02-07T20:31:13.317Z,38.50
2019-02-07T20:33:43.931Z,35.23
2019-02-07T20:36:14.252Z,34.03
2019-02-07T20:38:44.748Z,31.45
2019-02-07T20:41:15.274Z,33.98
2019-02-07T20:43:45.867Z,33.73
2019-02-07T20:46:16.233Z,36.77
2019-02-07T20:48:47.183Z,35.43
2019-02-07T20:51:17.785Z,34.03
2019-02-07T20:53:48.466Z,31.82
2019-02-07T20:56:19.530Z,33.75
2019-02-07T20:58:49.845Z,30.68
2019-02-07T21:01:20.359Z,35.45
2019-02-07T21:03:51.009Z,29.30
2019-02-07T21:06:21.346Z,34.90
2019-02-07T21:08:51.730Z,33.05
2019-02-07T21:11:22.376Z,30.90
2019-02-07T21:13:52.757Z,32.40
2019-02-07T21:16:23.617Z,32.60
2019-02-07T21:18:54.247Z,31.68
2019-02-07T21:21:24.887Z,36.77
2019-02-07T21:23:55.230Z,30.10
2019-02-07T21:26:25.811Z,32.45
2019-02-07T21:28:56.631Z,34.10
2019-02-07T21:31:27.284Z,34.60
2019-02-07T21:33:58.247Z,28.90
2019-02-07T21:36:28.589Z,35.63
2019-02-07T21:38:59.202Z,39.05
2019-02-07T21:41:29.550Z,35.90
2019-02-07T21:44:00.485Z,41.33
2019-02-07T21:46:31.352Z,37.95
2019-02-07T21:49:01.982Z,38.50
2019-02-07T21:51:32.353Z,39.78
2019-02-07T21:54:02.700Z,38.48
2019-02-07T21:56:33.053Z,38.88
2019-02-07T21:59:03.469Z,38.75
2019-02-07T22:01:34.094Z,37.28
2019-02-07T22:04:05.051Z,37.50
2019-02-07T22:06:35.816Z,32.45
2019-02-07T22:09:10.509Z,36.68
2019-02-07T22:11:41.124Z,31.87
2019-02-07T22:14:11.782Z,34.88
2019-02-07T22:16:42.920Z,40.28
2019-02-07T22:19:13.802Z,39.95
2019-02-07T22:21:44.155Z,34.10
2019-02-07T22:24:14.507Z,36.95
2019-02-07T22:26:44.852Z,31.73
2019-02-07T22:29:15.263Z,42.85
2019-02-07T22:31:45.868Z,35.25
2019-02-07T22:34:16.568Z,34.15
2019-02-07T22:36:47.529Z,39.15
2019-02-07T22:39:17.861Z,38.40
2019-02-07T22:41:49.124Z,34.00
2019-02-07T22:44:20.156Z,39.15
2019-02-07T22:46:50.485Z,40.23
2019-02-07T22:49:21.112Z,33.60
2019-02-07T22:51:51.745Z,50.10
2019-02-07T22:54:22.366Z,32.65
2019-02-07T22:56:52.958Z,33.28
2019-02-07T22:59:23.359Z,37.93
2019-02-07T23:01:54.049Z,40.55
2019-02-07T23:04:24.959Z,34.63
2019-02-07T23:06:55.346Z,35.38
2019-02-07T23:09:25.964Z,38.02
2019-02-07T23:11:56.724Z,41.35
2019-02-07T23:14:27.660Z,34.38
2019-02-07T23:16:58.381Z,32.75
2019-02-07T23:19:29.004Z,38.08
2019-02-07T23:21:59.683Z,36.20
2019-02-07T23:24:30.015Z,32.33
2019-02-07T23:27:00.342Z,38.38
2019-02-07T23:29:30.984Z,38.25
2019-02-07T23:32:01.314Z,29.77
2019-02-07T23:34:31.939Z,36.40
2019-02-07T23:37:02.591Z,32.33
2019-02-07T23:39:33.724Z,35.68
2019-02-07T23:42:04.145Z,38.73
2019-02-07T23:44:34.779Z,34.63
2019-02-07T23:47:05.107Z,30.17
2019-02-07T23:49:35.700Z,37.65
2019-02-07T23:52:06.319Z,38.30
2019-02-07T23:54:36.827Z,36.28
2019-02-07T23:57:07.710Z,33.80
2019-02-07T23:59:38.747Z,34.58
